Time;durP1;ratioP1;P1;durP2;ratioP2;P2;SDS_P1;SDS_P2;PMS_P1;PMS_P2;Temp;Humidity;BMP_temperature;BMP_pressure;BME280_temperature;BME280_humidity;BME280_pressure;Samples;Min_cycle;Max_cycle;Signal;HPM_P1;HPM_P2
2023/10/25 00:01:24;;;;;;;1.70;1.60;;;11.00;32.80;;;;;;4941303;29;20422;-86
2023/10/25 00:03:49;;;;;;;5.00;1.60;;;10.20;31.90;;;;;;4941099;29;20908;-86
2023/10/25 00:06:15;;;;;;;2.00;1.80;;;10.30;34.50;;;;;;4970755;28;20400;-86
2023/10/25 00:08:41;;;;;;;2.30;1.70;;;10.00;41.90;;;;;;4964048;28;20394;-83
2023/10/25 00:11:07;;;;;;;1.70;1.50;;;10.60;44.80;;;;;;4979495;28;20406;-84
2023/10/25 00:13:34;;;;;;;1.98;1.60;;;10.60;36.10;;;;;;4980098;28;20459;-83
2023/10/25 00:16:00;;;;;;;2.50;1.80;;;10.50;23.60;;;;;;4980000;28;20385;-84
2023/10/25 00:18:26;;;;;;;3.25;1.80;;;10.60;34.60;;;;;;4965196;28;20417;-84
2023/10/25 00:20:52;;;;;;;3.25;1.80;;;10.30;24.90;;;;;;4983315;28;20443;-84
2023/10/25 00:23:19;;;;;;;2.30;2.10;;;10.30;28.30;;;;;;4965743;28;20390;-83
2023/10/25 00:25:48;;;;;;;1.90;1.80;;;10.50;38.10;;;;;;4963874;28;20453;-84
2023/10/25 00:28:14;;;;;;;2.90;2.05;;;10.40;21.50;;;;;;4981606;28;20392;-83
2023/10/25 00:30:40;;;;;;;2.63;2.15;;;10.40;27.10;;;;;;4981976;28;20427;-84
2023/10/25 00:33:05;;;;;;;2.13;1.92;;;10.20;26.70;;;;;;4976166;28;20401;-84
2023/10/25 00:35:31;;;;;;;2.20;2.00;;;10.40;42.00;;;;;;4979610;28;20390;-84
2023/10/25 00:37:57;;;;;;;2.35;1.98;;;10.20;21.70;;;;;;4981157;28;20388;-83
2023/10/25 00:40:23;;;;;;;3.10;2.30;;;9.90;27.90;;;;;;4998615;28;20424;-84
2023/10/25 00:42:49;;;;;;;2.10;1.90;;;10.30;36.80;;;;;;4981735;28;20394;-84
2023/10/25 00:45:14;;;;;;;3.10;2.10;;;10.30;51.80;;;;;;4981763;28;20419;-86
2023/10/25 00:47:41;;;;;;;3.63;1.70;;;10.10;32.50;;;;;;4972088;28;20426;-83
2023/10/25 00:50:10;;;;;;;1.77;1.67;;;9.90;41.70;;;;;;4962124;28;20431;-84
2023/10/25 00:52:38;;;;;;;2.10;1.90;;;10.20;40.90;;;;;;4987276;28;20392;-84
2023/10/25 00:55:04;;;;;;;1.98;1.58;;;10.40;29.30;;;;;;4981672;28;20432;-84
2023/10/25 00:57:32;;;;;;;2.35;1.70;;;10.10;27.60;;;;;;4997655;28;20439;-85
2023/10/25 00:59:59;;;;;;;2.80;1.67;;;10.00;29.30;;;;;;4963972;28;20453;-84
2023/10/25 01:02:25;;;;;;;2.42;1.70;;;10.00;28.80;;;;;;4998196;28;20385;-84
2023/10/25 01:04:51;;;;;;;2.88;1.80;;;10.10;28.00;;;;;;4981883;28;20419;-84
2023/10/25 01:07:17;;;;;;;3.80;1.75;;;10.00;36.30;;;;;;4976994;28;20465;-84
2023/10/25 01:09:42;;;;;;;3.10;1.50;;;9.90;23.90;;;;;;4962999;28;20402;-85
2023/10/25 01:12:08;;;;;;;3.25;1.70;;;9.80;22.60;;;;;;4964853;28;20385;-84
2023/10/25 01:14:33;;;;;;;3.20;1.90;;;9.90;31.30;;;;;;4982086;28;20443;-85
2023/10/25 01:16:59;;;;;;;2.00;1.80;;;9.80;27.10;;;;;;4982071;28;20409;-85
2023/10/25 01:19:25;;;;;;;2.20;1.90;;;9.70;29.50;;;;;;4981470;28;20415;-86
2023/10/25 01:21:50;;;;;;;2.30;1.60;;;9.10;40.00;;;;;;4975124;28;20402;-86
2023/10/25 01:24:16;;;;;;;1.85;1.65;;;9.50;28.90;;;;;;4979729;28;20415;-85
2023/10/25 01:26:42;;;;;;;1.80;1.70;;;9.50;28.90;;;;;;4998530;28;20439;-84
2023/10/25 01:29:07;;;;;;;2.00;1.90;;;9.70;29.00;;;;;;4981873;28;20404;-86
2023/10/25 01:31:33;;;;;;;3.70;1.60;;;9.50;20.90;;;;;;4981034;28;20384;-84
2023/10/25 01:33:59;;;;;;;1.60;1.50;;;9.50;29.20;;;;;;4981839;28;20412;-85
2023/10/25 01:36:24;;;;;;;2.80;1.70;;;9.70;49.80;;;;;;4981620;28;20392;-83
2023/10/25 01:38:50;;;;;;;1.50;1.40;;;9.50;31.50;;;;;;4964884;28;20418;-86
2023/10/25 01:41:16;;;;;;;1.70;1.60;;;9.50;35.40;;;;;;4980140;28;20460;-85
2023/10/25 01:43:44;;;;;;;1.45;1.35;;;9.50;27.20;;;;;;4981127;28;20400;-86
2023/10/25 01:46:10;;;;;;;3.23;1.60;;;9.50;24.70;;;;;;4980353;28;20431;-85
2023/10/25 01:48:39;;;;;;;1.60;1.20;;;9.30;27.30;;;;;;4980592;28;20408;-86
2023/10/25 01:51:06;;;;;;;2.13;1.50;;;9.50;24.50;;;;;;4984302;28;20429;-86
2023/10/25 01:53:33;;;;;;;1.50;1.40;;;9.50;23.70;;;;;;4939316;28;20397;-86
2023/10/25 01:55:58;;;;;;;2.30;1.23;;;9.50;18.40;;;;;;4972569;28;20483;-86
2023/10/25 01:58:24;;;;;;;1.50;1.40;;;9.40;14.00;;;;;;4944340;28;20522;-86
2023/10/25 02:00:49;;;;;;;1.40;1.30;;;9.40;14.90;;;;;;4954597;28;20418;-85
2023/10/25 02:03:15;;;;;;;1.90;1.37;;;9.50;14.70;;;;;;4946179;28;20420;-85
2023/10/25 02:05:40;;;;;;;1.50;1.40;;;9.50;13.90;;;;;;4956143;28;20388;-86
2023/10/25 02:08:06;;;;;;;1.90;1.20;;;9.20;9.30;;;;;;4967018;28;20413;-86
2023/10/25 02:10:33;;;;;;;1.40;1.08;;;9.40;16.40;;;;;;4951774;28;20404;-86
2023/10/25 02:12:59;;;;;;;1.23;1.13;;;9.20;15.20;;;;;;4945837;29;20412;-86
2023/10/25 02:15:25;;;;;;;2.60;1.17;;;9.40;17.10;;;;;;4940788;29;20485;-86
2023/10/25 02:17:51;;;;;;;1.30;1.20;;;9.20;15.20;;;;;;4954923;28;20401;-86
2023/10/25 02:20:16;;;;;;;0.90;0.90;;;9.50;11.80;;;;;;4964065;28;20463;-87
2023/10/25 02:22:42;;;;;;;1.10;1.10;;;9.50;7.90;;;;;;4954923;28;20785;-86
2023/10/25 02:25:07;;;;;;;1.20;1.10;;;9.40;2.50;;;;;;4940634;28;20452;-86
2023/10/25 02:27:33;;;;;;;1.10;1.00;;;9.40;3.30;;;;;;4972285;28;20432;-86
2023/10/25 02:29:58;;;;;;;1.80;1.10;;;9.50;1.40;;;;;;4972575;28;20418;-85
2023/10/25 02:32:24;;;;;;;2.15;0.90;;;9.50;1.00;;;;;;4969142;28;20808;-87
2023/10/25 02:34:49;;;;;;;2.30;1.00;;;9.50;1.00;;;;;;4936394;28;20449;-86
2023/10/25 02:37:15;;;;;;;1.10;1.00;;;8.80;1.00;;;;;;4954617;28;20444;-86
2023/10/25 02:39:42;;;;;;;1.30;0.90;;;9.40;2.40;;;;;;4936500;29;21065;-86
2023/10/25 02:42:08;;;;;;;1.30;1.20;;;9.30;1.00;;;;;;4937065;29;20913;-85
2023/10/25 02:44:34;;;;;;;1.50;1.00;;;9.40;1.30;;;;;;4949966;28;20451;-86
2023/10/25 02:46:59;;;;;;;1.08;1.00;;;8.40;1.00;;;;;;4965290;28;20471;-86
2023/10/25 02:49:25;;;;;;;1.20;1.10;;;9.40;1.00;;;;;;4943825;29;20491;-85
2023/10/25 02:51:51;;;;;;;1.37;0.90;;;9.40;1.00;;;;;;4939332;29;20413;-85
2023/10/25 02:54:17;;;;;;;1.60;1.00;;;9.30;1.00;;;;;;4963321;28;20414;-86
2023/10/25 02:56:42;;;;;;;1.35;0.90;;;9.30;1.00;;;;;;4967747;28;20404;-86
2023/10/25 02:59:08;;;;;;;1.70;0.93;;;9.30;1.00;;;;;;4969817;28;20464;-86
2023/10/25 03:01:33;;;;;;;1.40;1.10;;;8.90;1.00;;;;;;4954686;28;20843;-85
2023/10/25 03:03:59;;;;;;;1.30;1.10;;;9.30;1.00;;;;;;4953924;28;21530;-85
2023/10/25 03:06:25;;;;;;;1.37;1.13;;;9.40;1.00;;;;;;4956544;28;20417;-86
2023/10/25 03:08:50;;;;;;;1.50;1.10;;;9.30;1.00;;;;;;4967261;28;20407;-86
2023/10/25 03:11:16;;;;;;;1.10;1.00;;;9.30;1.00;;;;;;4958050;28;20403;-85
2023/10/25 03:13:41;;;;;;;1.63;0.98;;;9.20;1.00;;;;;;4956773;28;20431;-85
2023/10/25 03:16:08;;;;;;;1.90;0.80;;;9.30;1.00;;;;;;4954749;28;20407;-86
2023/10/25 03:18:34;;;;;;;1.63;1.10;;;9.30;2.40;;;;;;4941688;28;20936;-86
2023/10/25 03:21:01;;;;;;;1.60;1.00;;;9.30;1.00;;;;;;4939589;28;20453;-85
2023/10/25 03:23:27;;;;;;;1.70;1.00;;;9.30;1.00;;;;;;4942147;29;20394;-85
2023/10/25 03:25:53;;;;;;;1.83;1.10;;;9.60;1.00;;;;;;4968574;28;20446;-86
2023/10/25 03:28:19;;;;;;;1.30;0.70;;;9.20;1.00;;;;;;4969243;28;20406;-86
2023/10/25 03:30:46;;;;;;;1.77;1.10;;;9.30;1.00;;;;;;4967476;28;20396;-86
2023/10/25 03:33:11;;;;;;;1.50;0.80;;;9.10;1.00;;;;;;4940491;29;20414;-85
2023/10/25 03:35:37;;;;;;;1.17;0.93;;;9.20;1.00;;;;;;4955694;28;20501;-86
2023/10/25 03:38:02;;;;;;;1.50;0.90;;;9.10;1.00;;;;;;4981362;28;20469;-85
2023/10/25 03:40:28;;;;;;;1.80;0.93;;;9.20;1.00;;;;;;4952466;28;20449;-86
2023/10/25 03:42:53;;;;;;;1.60;0.80;;;9.20;1.00;;;;;;4962523;28;20412;-84
2023/10/25 03:45:19;;;;;;;1.80;1.03;;;9.20;1.00;;;;;;4990805;28;20459;-85
2023/10/25 03:47:45;;;;;;;0.90;0.90;;;9.20;1.00;;;;;;4980698;28;20478;-84
2023/10/25 03:50:10;;;;;;;0.90;0.90;;;9.20;1.00;;;;;;4966059;28;20421;-86
2023/10/25 03:52:36;;;;;;;1.00;0.90;;;9.30;1.00;;;;;;4939030;28;20410;-86
2023/10/25 03:55:02;;;;;;;3.10;1.40;;;9.30;1.00;;;;;;4960408;28;20403;-86
2023/10/25 03:57:27;;;;;;;1.00;0.90;;;9.30;1.00;;;;;;4939349;28;20433;-86
2023/10/25 03:59:53;;;;;;;1.10;1.00;;;9.40;1.00;;;;;;4940536;28;20402;-86
2023/10/25 04:02:19;;;;;;;2.45;1.38;;;9.40;1.00;;;;;;4955139;28;20489;-85
2023/10/25 04:04:44;;;;;;;0.80;0.80;;;9.20;1.00;;;;;;4956833;28;20426;-86
2023/10/25 04:07:12;;;;;;;1.50;0.85;;;9.40;1.00;;;;;;4973138;28;20399;-85
2023/10/25 04:09:37;;;;;;;1.10;0.90;;;8.70;1.00;;;;;;4968872;28;20404;-86
2023/10/25 04:12:03;;;;;;;1.10;1.00;;;8.80;1.00;;;;;;4981812;28;20410;-86
2023/10/25 04:14:29;;;;;;;1.40;1.07;;;9.20;1.00;;;;;;4958820;28;20394;-84
2023/10/25 04:16:55;;;;;;;2.20;1.00;;;9.10;1.00;;;;;;4972274;28;20427;-86
2023/10/25 04:19:20;;;;;;;2.20;1.00;;;9.20;1.00;;;;;;4974635;28;20473;-85
2023/10/25 04:21:46;;;;;;;1.40;0.90;;;8.90;1.00;;;;;;4997955;28;20436;-85
2023/10/25 04:24:11;;;;;;;1.87;1.13;;;9.20;1.00;;;;;;4986357;28;20480;-86
2023/10/25 04:26:37;;;;;;;1.75;1.20;;;9.30;1.00;;;;;;4979261;28;20397;-85
2023/10/25 04:29:02;;;;;;;1.73;1.10;;;9.00;1.00;;;;;;4976821;28;20392;-86
2023/10/25 04:31:28;;;;;;;3.00;1.10;;;9.30;1.00;;;;;;4980363;28;20434;-86
2023/10/25 04:33:53;;;;;;;1.40;0.90;;;9.30;1.00;;;;;;4961908;28;20417;-85
2023/10/25 04:36:19;;;;;;;1.23;1.00;;;9.20;1.00;;;;;;4964792;28;20935;-86
2023/10/25 04:38:46;;;;;;;1.10;1.00;;;9.20;1.00;;;;;;4959105;28;20535;-85
2023/10/25 04:41:12;;;;;;;2.08;1.00;;;9.10;1.00;;;;;;4962600;28;20496;-86
2023/10/25 04:43:37;;;;;;;1.20;1.10;;;9.00;1.00;;;;;;4955228;28;20402;-85
2023/10/25 04:46:03;;;;;;;1.07;0.97;;;9.10;1.00;;;;;;4939375;28;20398;-85
2023/10/25 04:48:29;;;;;;;2.20;1.20;;;9.10;1.00;;;;;;4955212;28;20573;-85
2023/10/25 04:50:54;;;;;;;2.55;1.23;;;9.00;1.00;;;;;;4964445;28;20490;-85
2023/10/25 04:53:20;;;;;;;1.10;1.00;;;8.80;1.00;;;;;;4975772;28;20491;-86
2023/10/25 04:55:46;;;;;;;2.75;1.10;;;9.00;1.00;;;;;;4951194;28;20416;-86
2023/10/25 04:58:12;;;;;;;1.30;1.20;;;9.10;1.00;;;;;;4945482;28;20451;-85
2023/10/25 05:00:37;;;;;;;2.10;1.40;;;8.90;1.00;;;;;;4989673;28;20420;-85
2023/10/25 05:03:05;;;;;;;2.20;1.17;;;8.90;1.00;;;;;;4982061;28;20428;-84
2023/10/25 05:05:32;;;;;;;1.50;1.00;;;8.90;1.00;;;;;;5001077;28;20462;-85
2023/10/25 05:07:58;;;;;;;1.70;1.45;;;8.90;1.00;;;;;;4974420;28;20475;-86
2023/10/25 05:10:24;;;;;;;1.20;1.10;;;8.90;1.00;;;;;;4943350;28;20433;-86
2023/10/25 05:12:50;;;;;;;1.80;1.10;;;9.00;1.00;;;;;;4952348;28;20425;-86
2023/10/25 05:15:18;;;;;;;2.70;1.20;;;8.90;1.00;;;;;;4944463;29;20453;-85
2023/10/25 05:17:45;;;;;;;1.90;1.80;;;8.90;1.00;;;;;;4940193;28;20429;-87
2023/10/25 05:20:12;;;;;;;1.50;1.40;;;9.20;1.00;;;;;;4963345;28;20411;-88
2023/10/25 05:22:42;;;;;;;1.30;1.15;;;9.10;1.00;;;;;;4967654;28;20396;-86
2023/10/25 05:25:09;;;;;;;2.78;0.90;;;9.20;1.00;;;;;;4962226;28;20445;-87
2023/10/25 05:27:36;;;;;;;1.50;1.10;;;9.00;1.00;;;;;;4941664;28;20508;-87
2023/10/25 05:30:03;;;;;;;1.15;1.05;;;9.10;1.00;;;;;;4946927;28;20407;-88
2023/10/25 05:32:34;;;;;;;1.02;0.93;;;9.10;1.00;;;;;;4954420;28;20839;-87
2023/10/25 05:35:01;;;;;;;1.10;1.00;;;9.10;1.00;;;;;;4940711;29;20416;-85
2023/10/25 05:37:28;;;;;;;1.10;1.00;;;9.10;1.00;;;;;;4949843;28;20388;-85
2023/10/25 05:39:54;;;;;;;1.75;1.00;;;9.10;1.00;;;;;;4948813;28;20488;-84
2023/10/25 05:42:21;;;;;;;1.33;1.00;;;9.20;1.00;;;;;;4940489;29;20433;-84
2023/10/25 05:44:47;;;;;;;1.90;0.90;;;9.10;1.00;;;;;;4951252;28;20403;-85
2023/10/25 05:47:14;;;;;;;2.20;1.20;;;9.10;1.00;;;;;;4953767;28;20547;-83
2023/10/25 05:49:40;;;;;;;1.30;1.20;;;9.20;1.00;;;;;;4956059;28;20407;-85
2023/10/25 05:52:07;;;;;;;1.30;1.10;;;9.20;1.00;;;;;;4951284;28;20483;-84
2023/10/25 05:54:35;;;;;;;3.03;1.17;;;9.20;1.00;;;;;;4946091;28;20398;-84
2023/10/25 05:57:01;;;;;;;1.30;1.20;;;9.30;1.00;;;;;;4941491;29;20414;-84
2023/10/25 05:59:26;;;;;;;1.45;1.20;;;9.30;1.00;;;;;;4949454;28;20879;-83
2023/10/25 06:02:10;;;;;;;1.30;1.20;;;9.30;1.00;;;;;;4950943;28;20527;-84
2023/10/25 06:04:41;;;;;;;1.80;1.40;;;9.40;1.00;;;;;;4943133;28;20769;-85
2023/10/25 06:07:09;;;;;;;2.25;1.10;;;9.30;1.00;;;;;;4946471;28;20917;-84
2023/10/25 06:09:36;;;;;;;1.50;1.10;;;9.30;1.00;;;;;;4952712;28;20931;-84
2023/10/25 06:12:02;;;;;;;1.30;1.10;;;9.40;1.00;;;;;;4971182;28;20388;-86
2023/10/25 06:14:29;;;;;;;1.40;1.30;;;9.40;1.00;;;;;;4935725;29;20769;-84
2023/10/25 06:16:55;;;;;;;1.60;1.20;;;9.40;1.00;;;;;;4936248;29;20483;-85
2023/10/25 06:19:21;;;;;;;2.10;1.10;;;10.30;1.00;;;;;;4942403;28;20408;-85
2023/10/25 06:21:47;;;;;;;1.40;0.97;;;9.50;1.00;;;;;;4957980;28;20493;-85
2023/10/25 06:24:13;;;;;;;1.90;1.00;;;10.00;1.00;;;;;;4975628;28;21091;-85
2023/10/25 06:26:38;;;;;;;1.10;1.00;;;9.50;1.00;;;;;;4959130;28;20400;-85
2023/10/25 06:29:04;;;;;;;1.50;0.83;;;9.70;1.00;;;;;;4959198;28;20480;-85
2023/10/25 06:31:30;;;;;;;1.30;1.20;;;9.40;1.00;;;;;;4957543;28;20398;-85
2023/10/25 06:33:56;;;;;;;1.30;1.10;;;9.90;1.00;;;;;;4958107;28;20430;-85
2023/10/25 06:36:21;;;;;;;1.10;1.00;;;9.60;1.00;;;;;;4940201;29;20902;-85
2023/10/25 06:38:47;;;;;;;2.10;1.08;;;9.80;1.00;;;;;;4940538;29;20441;-85
2023/10/25 06:41:17;;;;;;;1.30;1.13;;;9.70;1.00;;;;;;4940543;29;20464;-85
2023/10/25 06:43:43;;;;;;;1.50;1.40;;;9.80;1.00;;;;;;4942898;29;20477;-85
2023/10/25 06:46:11;;;;;;;1.67;1.30;;;9.80;1.00;;;;;;4940286;29;20417;-86
2023/10/25 06:48:37;;;;;;;2.00;1.35;;;10.00;1.00;;;;;;4940091;29;20759;-86
2023/10/25 06:51:05;;;;;;;2.30;1.30;;;10.00;1.00;;;;;;4939862;29;20409;-86
2023/10/25 06:53:31;;;;;;;3.88;1.20;;;10.10;1.00;;;;;;4944899;28;20451;-86
2023/10/25 06:55:57;;;;;;;2.20;1.40;;;10.10;1.00;;;;;;4959004;28;20392;-85
2023/10/25 06:58:23;;;;;;;1.20;1.10;;;10.20;1.00;;;;;;4959436;28;20391;-85
2023/10/25 07:00:50;;;;;;;1.50;1.20;;;10.20;1.00;;;;;;4959319;28;20419;-85
2023/10/25 07:03:21;;;;;;;1.40;1.05;;;10.20;1.00;;;;;;4974592;28;20423;-84
2023/10/25 07:05:48;;;;;;;1.95;1.23;;;10.30;1.00;;;;;;4942244;29;20386;-85
2023/10/25 07:08:14;;;;;;;2.67;1.10;;;10.50;1.00;;;;;;4941873;29;20409;-85
2023/10/25 07:10:40;;;;;;;1.27;1.10;;;10.50;1.00;;;;;;4957493;28;20390;-85
2023/10/25 07:13:06;;;;;;;1.02;0.90;;;10.60;1.00;;;;;;4939799;28;20484;-85
2023/10/25 07:15:32;;;;;;;2.40;1.10;;;10.60;1.00;;;;;;4940041;29;20405;-86
2023/10/25 07:17:58;;;;;;;2.25;1.20;;;10.90;1.00;;;;;;4946584;28;20909;-84
2023/10/25 07:20:24;;;;;;;1.50;1.10;;;10.80;1.00;;;;;;4959042;28;20415;-85
2023/10/25 07:22:50;;;;;;;1.90;0.90;;;10.90;1.00;;;;;;4976388;28;20384;-86
2023/10/25 07:25:16;;;;;;;1.48;1.20;;;10.80;1.00;;;;;;4949670;28;20802;-86
2023/10/25 07:27:41;;;;;;;2.28;1.13;;;11.00;1.00;;;;;;4939677;28;20913;-85
2023/10/25 07:30:07;;;;;;;1.55;1.10;;;10.90;1.00;;;;;;4939883;29;20406;-85
2023/10/25 07:32:35;;;;;;;2.60;1.20;;;11.10;1.00;;;;;;4940655;29;20386;-86
2023/10/25 07:35:00;;;;;;;1.90;1.50;;;11.00;1.00;;;;;;4939878;29;21072;-86
2023/10/25 07:37:26;;;;;;;1.17;1.08;;;10.60;1.00;;;;;;4958808;28;20491;-85
2023/10/25 07:39:52;;;;;;;1.50;1.30;;;11.30;1.00;;;;;;4963783;28;20404;-85
2023/10/25 07:42:18;;;;;;;1.63;1.20;;;12.50;1.00;;;;;;4981958;28;20428;-84
2023/10/25 07:44:43;;;;;;;1.00;0.90;;;10.60;1.00;;;;;;4970282;28;20405;-84
2023/10/25 07:47:09;;;;;;;1.60;0.90;;;11.70;1.00;;;;;;4993036;28;20412;-85
2023/10/25 07:49:36;;;;;;;1.00;0.80;;;11.50;1.00;;;;;;4963900;28;20415;-85
2023/10/25 07:52:02;;;;;;;1.20;0.80;;;11.80;1.00;;;;;;4953632;28;20420;-84
2023/10/25 07:54:28;;;;;;;0.80;0.70;;;12.10;1.00;;;;;;4942105;29;20401;-85
2023/10/25 07:56:54;;;;;;;1.20;0.90;;;11.40;1.00;;;;;;4938516;29;20394;-85
2023/10/25 07:59:20;;;;;;;3.00;1.60;;;12.50;1.00;;;;;;4938377;29;20481;-85
2023/10/25 08:01:46;;;;;;;1.00;0.90;;;11.60;1.00;;;;;;4938906;28;20851;-85
2023/10/25 08:04:11;;;;;;;1.60;0.87;;;13.40;1.00;;;;;;4938107;29;20382;-85
2023/10/25 08:06:38;;;;;;;1.00;0.73;;;12.80;1.00;;;;;;4956302;28;20879;-85
2023/10/25 08:09:03;;;;;;;1.27;0.80;;;12.90;1.00;;;;;;4938830;28;20402;-85
2023/10/25 08:11:34;;;;;;;1.40;1.10;;;12.80;1.00;;;;;;4938105;29;20923;-85
2023/10/25 08:14:00;;;;;;;1.50;0.80;;;13.00;1.00;;;;;;4955226;29;20413;-85
2023/10/25 08:16:26;;;;;;;1.53;0.80;;;13.40;1.00;;;;;;4938021;29;20402;-85
2023/10/25 08:18:51;;;;;;;1.00;0.80;;;13.20;1.00;;;;;;4955876;28;20396;-85
2023/10/25 08:21:17;;;;;;;1.10;0.90;;;13.50;1.00;;;;;;4957171;28;20423;-84
2023/10/25 08:23:46;;;;;;;0.80;0.60;;;12.30;1.00;;;;;;4951641;28;20747;-85
2023/10/25 08:26:12;;;;;;;0.90;0.90;;;14.70;1.00;;;;;;4937753;29;20448;-85
2023/10/25 08:28:38;;;;;;;0.90;0.80;;;13.30;1.00;;;;;;4938281;29;20421;-85
2023/10/25 08:31:13;;;;;;;0.70;0.60;;;12.80;1.00;;;;;;4939093;29;20394;-85
2023/10/25 08:33:40;;;;;;;1.20;0.90;;;13.70;1.00;;;;;;4941370;28;20419;-85
2023/10/25 08:36:06;;;;;;;0.80;0.70;;;13.70;1.00;;;;;;4969201;28;20372;-84
2023/10/25 08:38:32;;;;;;;0.80;0.50;;;13.80;1.00;;;;;;4961275;28;20447;-86
2023/10/25 08:41:05;;;;;;;2.00;0.80;;;13.80;1.00;;;;;;4957831;28;20408;-85
2023/10/25 08:43:33;;;;;;;0.80;0.50;;;13.20;1.00;;;;;;4958117;28;20394;-86
2023/10/25 08:45:58;;;;;;;2.10;0.80;;;14.50;1.00;;;;;;4957272;28;20396;-85
2023/10/25 08:48:25;;;;;;;0.80;0.63;;;14.60;1.00;;;;;;4958055;28;20456;-84
2023/10/25 08:50:51;;;;;;;1.17;0.80;;;15.50;1.00;;;;;;4957508;28;20400;-85
2023/10/25 08:53:23;;;;;;;0.80;0.60;;;14.80;1.00;;;;;;4958474;28;20399;-85
2023/10/25 08:55:53;;;;;;;1.15;0.60;;;14.60;1.00;;;;;;4966580;28;20438;-85
2023/10/25 08:58:19;;;;;;;1.50;0.60;;;14.20;1.00;;;;;;4961728;29;20392;-85
2023/10/25 09:00:46;;;;;;;4.40;0.70;;;15.80;1.00;;;;;;4959218;28;20477;-84
2023/10/25 09:03:48;;;;;;;2.33;0.52;;;14.60;1.00;;;;;;4965434;28;20412;-85
2023/10/25 09:06:23;;;;;;;0.80;0.60;;;15.00;1.00;;;;;;4864435;29;20409;-85
2023/10/25 09:09:02;;;;;;;1.00;0.60;;;14.80;1.00;;;;;;4944640;28;20400;-86
2023/10/25 09:11:55;;;;;;;0.60;0.50;;;14.60;1.00;;;;;;4948759;28;20484;-86
2023/10/25 09:14:20;;;;;;;2.03;0.80;;;15.00;1.00;;;;;;4937632;29;20400;-86
2023/10/25 09:16:47;;;;;;;1.80;0.60;;;14.90;1.00;;;;;;4937596;29;20477;-85
2023/10/25 09:19:19;;;;;;;2.05;0.77;;;14.70;1.00;;;;;;4938051;29;20408;-86
2023/10/25 09:21:45;;;;;;;0.68;0.55;;;14.80;1.00;;;;;;4942167;29;20422;-85
2023/10/25 09:24:11;;;;;;;1.33;0.55;;;15.30;1.00;;;;;;4942187;29;20421;-86
2023/10/25 09:26:39;;;;;;;1.27;0.50;;;14.30;1.00;;;;;;4949043;29;21081;-86
2023/10/25 09:39:53;;;;;;;1.10;0.70;;;16.60;1.00;;;;;;4875854;29;20905;-85
2023/10/25 09:46:19;;;;;;;0.80;0.40;;;15.80;1.00;;;;;;4933434;28;20410;-86
2023/10/25 09:49:26;;;;;;;1.00;0.68;;;16.70;1.00;;;;;;4941388;28;20412;-85
2023/10/25 09:52:33;;;;;;;1.77;0.80;;;15.30;1.00;;;;;;4931378;28;20454;-87
2023/10/25 09:55:56;;;;;;;1.70;0.93;;;17.60;1.00;;;;;;4962732;28;20411;-85
2023/10/25 09:58:38;;;;;;;1.40;0.60;;;16.30;1.00;;;;;;4960293;28;20400;-86
2023/10/25 10:01:29;;;;;;;0.90;0.50;;;17.10;1.00;;;;;;4958791;28;20976;-86
2023/10/25 10:04:34;;;;;;;;;;;;;;;;;;;;;
2023/10/25 10:07:28;;;;;;;0.50;0.40;;;16.80;1.00;;;;;;4977156;28;20831;-88
2023/10/25 10:10:07;;;;;;;1.20;0.50;;;16.80;1.00;;;;;;4960928;28;20405;-87
2023/10/25 10:12:39;;;;;;;2.08;0.40;;;16.50;1.00;;;;;;4959815;28;20456;-86
2023/10/25 10:15:34;;;;;;;0.50;0.40;;;16.40;1.00;;;;;;4960939;28;20404;-86
2023/10/25 10:18:09;;;;;;;0.90;0.40;;;16.90;1.00;;;;;;4948600;28;20549;-86
2023/10/25 10:20:38;;;;;;;0.90;0.40;;;16.70;1.00;;;;;;4978412;28;20411;-85
2023/10/25 10:23:08;;;;;;;0.85;0.40;;;16.90;1.00;;;;;;4959305;28;20392;-85
2023/10/25 10:26:08;;;;;;;0.60;0.40;;;17.40;1.00;;;;;;4941702;29;20390;-86
2023/10/25 10:28:51;;;;;;;1.70;0.50;;;18.70;1.00;;;;;;4940458;29;20421;-86
2023/10/25 10:31:34;;;;;;;0.50;0.30;;;17.20;1.00;;;;;;4948121;28;20419;-87
2023/10/25 10:34:02;;;;;;;2.10;0.33;;;17.10;1.00;;;;;;4964212;28;20488;-86
2023/10/25 10:36:37;;;;;;;0.60;0.40;;;17.10;1.00;;;;;;4977868;28;20392;-87
2023/10/25 10:39:17;;;;;;;0.70;0.47;;;17.90;1.00;;;;;;4976243;28;20396;-86
2023/10/25 10:41:51;;;;;;;0.70;0.40;;;17.30;1.00;;;;;;4947852;29;20883;-85
2023/10/25 10:44:17;;;;;;;1.73;0.50;;;19.20;1.00;;;;;;4957765;28;20394;-85
2023/10/25 10:47:01;;;;;;;0.45;0.30;;;17.40;1.00;;;;;;4976080;28;20407;-85
2023/10/25 10:49:31;;;;;;;0.70;0.40;;;17.40;1.00;;;;;;4976358;28;20413;-84
2023/10/25 10:51:58;;;;;;;0.97;0.50;;;17.50;1.00;;;;;;4959299;28;20966;-86
2023/10/25 10:54:24;;;;;;;1.15;0.95;;;17.50;1.00;;;;;;4956629;28;20410;-85
2023/10/25 10:56:49;;;;;;;0.80;0.40;;;17.40;1.00;;;;;;4957235;28;20460;-87
2023/10/25 10:59:15;;;;;;;0.50;0.40;;;17.30;1.00;;;;;;4956660;29;20502;-85
2023/10/25 11:01:44;;;;;;;0.60;0.40;;;17.10;1.00;;;;;;4939619;29;20413;-85
2023/10/25 11:04:09;;;;;;;0.80;0.40;;;17.20;1.00;;;;;;4971618;28;20403;-88
2023/10/25 11:06:35;;;;;;;0.90;0.40;;;17.50;1.00;;;;;;4982018;28;20392;-86
2023/10/25 11:09:00;;;;;;;0.75;0.47;;;17.50;1.00;;;;;;4960233;28;20482;-86
2023/10/25 11:11:26;;;;;;;0.57;0.40;;;17.40;1.00;;;;;;4973552;28;20411;-86
2023/10/25 11:13:52;;;;;;;0.60;0.30;;;17.30;1.00;;;;;;4970843;28;20450;-85
2023/10/25 11:16:17;;;;;;;0.90;0.40;;;17.30;1.00;;;;;;4979150;28;20407;-85
2023/10/25 11:18:43;;;;;;;0.60;0.30;;;17.40;1.00;;;;;;4977855;28;20402;-87
2023/10/25 11:21:11;;;;;;;0.90;0.55;;;17.50;1.00;;;;;;4994993;28;20461;-86
2023/10/25 11:23:37;;;;;;;1.08;0.40;;;17.90;1.00;;;;;;4975940;28;20403;-85
2023/10/25 11:26:04;;;;;;;0.50;0.30;;;17.40;1.00;;;;;;4987396;28;20397;-87
2023/10/25 11:28:38;;;;;;;0.80;0.30;;;17.50;1.00;;;;;;4972657;29;20401;-86
2023/10/25 11:31:06;;;;;;;0.50;0.40;;;17.40;1.00;;;;;;4956940;29;20423;-85
2023/10/25 11:33:45;;;;;;;2.40;0.50;;;17.50;1.00;;;;;;4957996;29;20464;-84
2023/10/25 11:36:11;;;;;;;1.20;0.40;;;17.40;1.00;;;;;;4965260;28;20424;-86
2023/10/25 11:38:47;;;;;;;0.80;0.43;;;17.40;1.00;;;;;;4976849;28;20400;-85
2023/10/25 11:41:13;;;;;;;1.10;0.40;;;18.10;1.00;;;;;;4986025;28;20414;-86
2023/10/25 11:43:39;;;;;;;0.60;0.40;;;17.20;1.00;;;;;;4977113;28;20416;-86
2023/10/25 11:46:07;;;;;;;1.90;0.50;;;17.00;1.00;;;;;;4978791;28;20373;-87
2023/10/25 11:48:34;;;;;;;0.50;0.40;;;16.70;1.00;;;;;;4977876;28;20411;-87
2023/10/25 11:51:01;;;;;;;1.30;0.50;;;16.50;1.00;;;;;;4976630;28;20400;-85
2023/10/25 11:53:27;;;;;;;0.90;0.60;;;15.90;1.00;;;;;;4976855;28;20396;-85
2023/10/25 11:55:57;;;;;;;0.98;0.60;;;15.90;1.00;;;;;;4966499;28;20403;-85
2023/10/25 11:58:22;;;;;;;0.90;0.52;;;15.70;1.00;;;;;;4959143;28;20388;-85
2023/10/25 12:00:48;;;;;;;0.80;0.40;;;15.50;1.00;;;;;;4955606;28;20503;-84
2023/10/25 12:03:14;;;;;;;0.50;0.50;;;15.40;1.00;;;;;;4951377;28;20906;-87
2023/10/25 12:05:41;;;;;;;1.30;0.50;;;15.40;1.00;;;;;;4940286;29;20470;-86
2023/10/25 12:08:07;;;;;;;0.70;0.40;;;15.40;1.00;;;;;;4941241;29;20398;-85
2023/10/25 12:10:32;;;;;;;0.80;0.40;;;15.40;1.00;;;;;;4955231;28;20471;-86
2023/10/25 12:12:58;;;;;;;0.60;0.40;;;15.40;1.00;;;;;;4951595;28;20421;-86
2023/10/25 12:15:24;;;;;;;0.90;0.47;;;15.80;1.00;;;;;;4937816;29;20401;-86
2023/10/25 12:17:50;;;;;;;1.40;0.60;;;15.20;1.00;;;;;;4938955;29;20402;-87
2023/10/25 12:20:16;;;;;;;0.70;0.50;;;15.30;1.00;;;;;;4941003;29;20424;-85
2023/10/25 12:22:42;;;;;;;0.90;0.40;;;15.20;1.00;;;;;;4939587;28;20465;-84
2023/10/25 12:25:08;;;;;;;0.90;0.70;;;15.10;1.00;;;;;;4942985;29;20481;-84
2023/10/25 12:27:33;;;;;;;0.68;0.40;;;14.90;1.00;;;;;;4949628;29;20468;-84
2023/10/25 12:32:53;;;;;;;;;;;;;;;;;;;;;
2023/10/25 12:35:31;;;;;;;0.77;0.60;;;14.80;1.00;;;;;;4975814;28;20904;-84
2023/10/25 12:38:06;;;;;;;1.10;0.50;;;13.60;1.00;;;;;;4974610;28;20403;-83
2023/10/25 12:40:31;;;;;;;1.20;0.50;;;13.00;1.00;;;;;;4975461;28;20414;-84
2023/10/25 12:43:03;;;;;;;0.60;0.40;;;13.90;1.00;;;;;;4950789;28;20484;-85
2023/10/25 12:45:32;;;;;;;0.70;0.50;;;16.70;1.00;;;;;;4956167;28;20400;-84
2023/10/25 12:48:13;;;;;;;1.30;0.50;;;13.90;1.00;;;;;;4975677;28;20447;-84
2023/10/25 12:50:51;;;;;;;0.80;0.50;;;13.50;1.00;;;;;;4957923;28;20796;-87
2023/10/25 12:53:22;;;;;;;0.50;0.40;;;13.00;1.00;;;;;;4956042;28;20472;-84
2023/10/25 12:56:14;;;;;;;;;;;;;;;;;;;;;
2023/10/25 13:02:21;;;;;;;;;;;;;;;;;;;;;
2023/10/25 13:05:24;;;;;;;0.80;0.50;;;13.90;1.00;;;;;;4969950;28;20449;-85
2023/10/25 13:08:37;;;;;;;0.75;0.40;;;15.30;1.00;;;;;;4951309;29;20835;-84
2023/10/25 13:25:14;;;;;;;0.70;0.50;;;14.50;1.00;;;;;;4913601;29;20420;-86
2023/10/25 13:28:08;;;;;;;0.80;0.60;;;14.30;1.00;;;;;;4894643;28;20410;-85
2023/10/25 13:31:12;;;;;;;0.77;0.60;;;16.60;1.00;;;;;;4935283;29;20401;-85
2023/10/25 13:33:43;;;;;;;0.50;0.40;;;14.40;1.00;;;;;;4937400;29;20409;-85
2023/10/25 13:36:23;;;;;;;;;;;;;;;;;;;;;
2023/10/25 13:39:11;;;;;;;0.70;0.50;;;13.20;1.00;;;;;;4954188;29;20460;-84
2023/10/25 13:41:42;;;;;;;0.70;0.30;;;14.90;1.00;;;;;;4939844;28;20412;-86
2023/10/25 13:47:22;;;;;;;0.50;0.40;;;14.90;1.00;;;;;;4952207;28;20449;-85
2023/10/25 13:49:54;;;;;;;0.50;0.30;;;14.90;1.00;;;;;;4936339;29;20419;-85
2023/10/25 13:52:41;;;;;;;1.20;0.50;;;14.70;1.00;;;;;;4953173;28;20404;-85